createdAt,value
2023-08-07T00:02:13.273Z,87034.72
2023-08-07T00:04:40.990Z,87029.06
2023-08-07T00:07:08.366Z,87022.72
2023-08-07T00:09:35.994Z,87025.34
2023-08-07T00:12:03.648Z,87031.38
2023-08-07T00:14:31.011Z,87019.28
2023-08-07T00:21:04.613Z,87020.81
2023-08-07T00:23:32.032Z,87024.16
2023-08-07T00:25:59.883Z,87011.31
2023-08-07T00:28:27.428Z,87007.91
2023-08-07T00:30:54.968Z,87003.38
2023-08-07T00:33:22.526Z,87001.09
2023-08-07T00:35:49.978Z,87007.13
2023-08-07T00:38:17.314Z,87001.47
2023-08-07T00:40:44.788Z,87005.25
2023-08-07T00:43:12.213Z,87008.66
2023-08-07T00:45:46.324Z,87010.22
2023-08-07T00:48:16.039Z,87009.88
2023-08-07T00:50:47.669Z,87009.19
2023-08-07T00:53:16.136Z,87007.66
2023-08-07T00:55:44.350Z,87008.81
2023-08-07T00:58:12.878Z,87012.63
2023-08-07T01:00:40.292Z,87013.41
2023-08-07T01:03:08.376Z,87011.94
2023-08-07T01:05:37.158Z,87021.75
2023-08-07T01:08:05.250Z,87018.03
2023-08-07T01:11:04.206Z,87011.97
2023-08-07T01:13:43.755Z,86997.31
2023-08-07T01:16:36.799Z,87000.75
2023-08-07T01:19:09.172Z,87003.00
2023-08-07T01:21:37.100Z,87002.28
2023-08-07T01:24:04.716Z,87003.06
2023-08-07T01:26:35.083Z,86998.91
2023-08-07T01:29:24.540Z,87000.47
2023-08-07T01:31:55.937Z,86997.06
2023-08-07T01:34:26.950Z,87006.13
2023-08-07T01:36:58.202Z,87006.88
2023-08-07T01:39:26.886Z,86995.97
2023-08-07T01:41:54.774Z,86996.75
2023-08-07T01:44:22.460Z,86997.84
2023-08-07T01:46:49.922Z,87000.53
2023-08-07T01:49:17.549Z,86993.41
2023-08-07T01:51:44.889Z,87005.06
2023-08-07T01:54:12.324Z,86997.19
2023-08-07T01:56:39.733Z,86998.31
2023-08-07T01:59:07.093Z,86993.78
2023-08-07T02:01:34.600Z,86995.28
2023-08-07T02:04:02.366Z,86987.38
2023-08-07T02:06:29.757Z,86992.31
2023-08-07T02:08:57.359Z,86991.91
2023-08-07T02:11:24.782Z,86991.50
2023-08-07T02:13:52.149Z,86984.72
2023-08-07T02:16:19.744Z,86994.47
2023-08-07T02:18:47.282Z,86983.56
2023-08-07T02:21:14.669Z,86977.13
2023-08-07T02:23:42.429Z,86972.94
2023-08-07T02:26:09.797Z,86981.94
2023-08-07T02:28:37.222Z,86977.00
2023-08-07T02:31:04.598Z,86978.13
2023-08-07T02:33:32.285Z,86975.44
2023-08-07T02:36:09.078Z,86973.91
2023-08-07T02:38:36.425Z,86991.59
2023-08-07T02:41:03.764Z,86987.44
2023-08-07T02:43:31.300Z,86981.44
2023-08-07T02:45:58.770Z,86987.06
2023-08-07T02:48:26.447Z,86988.94
2023-08-07T02:50:53.969Z,86988.16
2023-08-07T02:53:21.352Z,86987.38
2023-08-07T02:55:48.797Z,86982.50
2023-08-07T02:58:16.298Z,86983.97
2023-08-07T03:00:43.631Z,86984.72
2023-08-07T03:03:11.616Z,86980.97
2023-08-07T03:05:39.009Z,86986.69
2023-08-07T03:08:06.399Z,86987.38
2023-08-07T03:10:34.005Z,86986.69
2023-08-07T03:13:01.424Z,87005.19
2023-08-07T03:15:29.023Z,86999.09
2023-08-07T03:17:56.367Z,86994.16
2023-08-07T03:20:23.862Z,86998.66
2023-08-07T03:22:51.223Z,86993.34
2023-08-07T03:25:19.772Z,86995.22
2023-08-07T03:27:47.447Z,86989.16
2023-08-07T03:30:15.177Z,86989.53
2023-08-07T03:32:42.582Z,86993.69
2023-08-07T03:35:10.033Z,86992.22
2023-08-07T03:37:37.808Z,87001.31
2023-08-07T03:40:06.578Z,86997.13
2023-08-07T03:42:34.296Z,87000.22
2023-08-07T03:45:02.101Z,87002.88
2023-08-07T03:47:29.531Z,87011.09
2023-08-07T03:49:56.987Z,87009.63
2023-08-07T03:52:24.381Z,87014.13
2023-08-07T03:54:51.733Z,87018.66
2023-08-07T03:57:19.219Z,87014.91
2023-08-07T03:59:46.579Z,87025.06
2023-08-07T04:02:13.861Z,87031.88
2023-08-07T04:04:41.406Z,87024.72
2023-08-07T04:07:08.773Z,87024.00
2023-08-07T04:09:36.197Z,87027.03
2023-08-07T04:12:03.900Z,87018.41
2023-08-07T04:14:31.228Z,87007.47
2023-08-07T04:16:58.698Z,87017.63
2023-08-07T04:19:26.362Z,87009.34
2023-08-07T04:21:53.717Z,87010.50
2023-08-07T04:24:21.145Z,87018.09
2023-08-07T04:26:49.094Z,87017.34
2023-08-07T04:29:16.915Z,87016.63
2023-08-07T04:31:44.374Z,87020.78
2023-08-07T04:34:11.715Z,87024.16
2023-08-07T04:36:39.243Z,87024.16
2023-08-07T04:39:06.612Z,87021.16
2023-08-07T04:41:34.240Z,87020.38
2023-08-07T04:44:01.813Z,87027.56
2023-08-07T04:46:29.493Z,87024.94
2023-08-07T04:48:56.811Z,87020.03
2023-08-07T04:51:24.508Z,87023.81
2023-08-07T04:53:51.914Z,87024.22
2023-08-07T04:56:19.405Z,87024.22
2023-08-07T04:58:46.820Z,87034.03
2023-08-07T05:01:14.291Z,87029.50
2023-08-07T05:03:41.739Z,87035.53
2023-08-07T05:06:10.590Z,87025.75
2023-08-07T05:08:38.079Z,87024.59
2023-08-07T05:11:05.832Z,87027.66
2023-08-07T05:13:33.171Z,87029.53
2023-08-07T05:16:00.591Z,87032.91
2023-08-07T05:18:28.180Z,87036.28
2023-08-07T05:20:55.885Z,87032.88
2023-08-07T05:23:29.427Z,87041.56
2023-08-07T05:25:56.829Z,87051.34
2023-08-07T05:28:24.448Z,87055.47
2023-08-07T05:30:51.830Z,87050.59
2023-08-07T05:33:19.177Z,87052.84
2023-08-07T05:35:46.544Z,87053.59
2023-08-07T05:38:14.126Z,87045.34
2023-08-07T05:40:41.495Z,87053.97
2023-08-07T05:47:14.499Z,87061.88
2023-08-07T05:49:41.921Z,87068.28
2023-08-07T05:52:09.797Z,87073.91
2023-08-07T05:54:37.146Z,87069.00
2023-08-07T05:57:04.987Z,87069.78
2023-08-07T05:59:32.354Z,87072.03
2023-08-07T06:02:00.407Z,87076.53
2023-08-07T06:04:28.246Z,87076.13
2023-08-07T06:06:55.744Z,87068.56
2023-08-07T06:09:23.169Z,87067.41
2023-08-07T06:11:50.500Z,87074.19
2023-08-07T06:14:17.921Z,87082.47
2023-08-07T06:16:45.320Z,87088.50
2023-08-07T06:19:25.113Z,87091.09
2023-08-07T06:21:57.461Z,87103.16
2023-08-07T06:24:25.211Z,87095.97
2023-08-07T06:26:52.768Z,87094.81
2023-08-07T06:29:20.135Z,87089.50
2023-08-07T06:31:47.805Z,87096.25
2023-08-07T06:34:15.725Z,87100.00
2023-08-07T06:36:45.844Z,87098.84
2023-08-07T06:39:13.351Z,87092.78
2023-08-07T06:41:41.228Z,87096.16
2023-08-07T06:44:10.972Z,87097.63
2023-08-07T06:46:38.876Z,87100.25
2023-08-07T06:49:06.281Z,87096.44
2023-08-07T06:51:33.646Z,87096.03
2023-08-07T06:54:01.091Z,87102.03
2023-08-07T06:56:28.536Z,87097.44
2023-08-07T06:58:56.265Z,87096.66
2023-08-07T07:01:23.742Z,87097.78
2023-08-07T07:03:51.500Z,87100.41
2023-08-07T07:06:19.581Z,87094.69
2023-08-07T07:08:46.949Z,87104.50
2023-08-07T07:11:14.832Z,87098.06
2023-08-07T07:13:42.425Z,87106.00
2023-08-07T07:16:09.762Z,87105.63
2023-08-07T07:18:37.104Z,87104.50
2023-08-07T07:21:04.440Z,87101.47
2023-08-07T07:23:32.025Z,87107.88
2023-08-07T07:26:00.030Z,87110.88
2023-08-07T07:28:29.005Z,87113.06
2023-08-07T07:30:56.479Z,87102.75
2023-08-07T07:33:23.895Z,87101.56
2023-08-07T07:35:51.580Z,87095.88
2023-08-07T07:38:19.000Z,87106.00
2023-08-07T07:40:46.347Z,87107.41
2023-08-07T07:43:13.736Z,87110.41
2023-08-07T07:45:41.319Z,87116.00
2023-08-07T07:48:08.803Z,87106.16
2023-08-07T07:50:36.399Z,87113.28
2023-08-07T07:53:03.773Z,87111.69
2023-08-07T07:55:31.409Z,87115.41
2023-08-07T07:57:58.779Z,87114.75
2023-08-07T08:00:26.407Z,87114.69
2023-08-07T08:02:54.157Z,87108.19
2023-08-07T08:05:21.960Z,87115.03
2023-08-07T08:07:49.589Z,87110.75
2023-08-07T08:10:17.092Z,87114.50
2023-08-07T08:12:44.632Z,87112.84
2023-08-07T08:15:12.244Z,87118.53
2023-08-07T08:17:39.860Z,87118.84
2023-08-07T08:20:08.800Z,87124.16
2023-08-07T08:22:36.249Z,87122.63
2023-08-07T08:25:03.925Z,87122.59
2023-08-07T08:27:31.683Z,87119.03
2023-08-07T08:29:59.560Z,87123.59
2023-08-07T08:32:27.161Z,87125.44
2023-08-07T08:34:54.609Z,87121.59
2023-08-07T08:37:22.810Z,87121.91
2023-08-07T08:39:50.750Z,87122.25
2023-08-07T08:42:18.195Z,87113.41
2023-08-07T08:45:00.245Z,87119.34
2023-08-07T08:47:28.496Z,87124.94
2023-08-07T08:50:13.513Z,87116.09
2023-08-07T08:52:45.849Z,87114.78
2023-08-07T08:55:14.948Z,87107.19
2023-08-07T08:57:43.450Z,87114.31
2023-08-07T09:00:12.409Z,87123.34
2023-08-07T09:02:40.260Z,87127.34
2023-08-07T09:05:08.551Z,87118.66
2023-08-07T09:07:37.026Z,87123.56
2023-08-07T09:10:05.422Z,87127.97
2023-08-07T09:12:35.266Z,87143.75
2023-08-07T09:15:04.358Z,87141.44
2023-08-07T09:17:39.603Z,87137.56
2023-08-07T09:20:08.527Z,87128.22
2023-08-07T09:22:35.930Z,87142.78
2023-08-07T09:25:03.387Z,87136.75
2023-08-07T09:27:32.201Z,87145.88
2023-08-07T09:30:00.381Z,87147.28
2023-08-07T09:32:28.021Z,87136.97
2023-08-07T09:34:55.419Z,87152.47
2023-08-07T09:37:24.874Z,87143.94
2023-08-07T09:39:52.862Z,87152.94
2023-08-07T09:42:20.358Z,87153.25
2023-08-07T09:44:47.862Z,87157.69
2023-08-07T09:47:18.897Z,87154.69
2023-08-07T09:49:47.528Z,87155.06
2023-08-07T09:52:16.349Z,87144.16
2023-08-07T09:54:43.738Z,87151.03
2023-08-07T09:57:11.172Z,87163.03
2023-08-07T09:59:38.768Z,87172.19
2023-08-07T10:02:07.012Z,87164.84
2023-08-07T10:04:35.947Z,87166.06
2023-08-07T10:07:04.443Z,87165.91
2023-08-07T10:09:33.233Z,87170.72
2023-08-07T10:12:01.672Z,87173.66
2023-08-07T10:14:30.049Z,87176.13
2023-08-07T10:16:58.622Z,87172.97
2023-08-07T10:19:26.320Z,87175.53
2023-08-07T10:21:55.462Z,87171.97
2023-08-07T10:24:25.129Z,87172.47
2023-08-07T10:26:54.987Z,87175.28
2023-08-07T10:29:26.766Z,87178.28
2023-08-07T10:31:58.719Z,87184.94
2023-08-07T10:34:29.488Z,87174.59
2023-08-07T10:36:57.047Z,87184.00
2023-08-07T10:39:24.659Z,87180.38
2023-08-07T10:41:55.988Z,87173.16
2023-08-07T10:44:31.542Z,87181.13
2023-08-07T10:46:59.723Z,87184.94
2023-08-07T10:49:38.633Z,87181.91
2023-08-07T10:52:15.970Z,87185.66
2023-08-07T10:54:50.321Z,87178.09
2023-08-07T10:57:20.018Z,87186.59
2023-08-07T10:59:59.673Z,87180.72
2023-08-07T11:02:31.373Z,87179.47
2023-08-07T11:04:59.315Z,87193.31
2023-08-07T11:07:28.337Z,87178.66
2023-08-07T11:09:57.579Z,87183.50
2023-08-07T11:12:30.842Z,87176.63
2023-08-07T11:14:58.621Z,87187.13
2023-08-07T11:17:30.895Z,87187.78
2023-08-07T11:19:58.738Z,87179.25
2023-08-07T11:22:26.262Z,87192.06
2023-08-07T11:24:57.442Z,87194.88
2023-08-07T11:27:24.918Z,87190.16
2023-08-07T11:29:52.672Z,87189.66
2023-08-07T11:32:22.918Z,87191.69
2023-08-07T11:34:51.519Z,87186.88
2023-08-07T11:37:19.071Z,87194.00
2023-08-07T11:39:46.824Z,87192.00
2023-08-07T11:42:15.235Z,87187.28
2023-08-07T11:44:43.206Z,87188.75
2023-08-07T11:47:11.681Z,87192.50
2023-08-07T11:49:39.599Z,87196.84
2023-08-07T11:52:08.002Z,87188.84
2023-08-07T11:54:35.660Z,87193.31
2023-08-07T11:57:03.124Z,87193.31
2023-08-07T11:59:30.942Z,87201.88
2023-08-07T12:01:58.419Z,87185.19
2023-08-07T12:04:26.029Z,87193.88
2023-08-07T12:06:58.589Z,87202.44
2023-08-07T12:09:27.822Z,87201.97
2023-08-07T12:12:05.333Z,87195.94
2023-08-07T12:14:33.264Z,87194.94
2023-08-07T12:17:03.452Z,87195.69
2023-08-07T12:19:41.256Z,87191.31
2023-08-07T12:22:11.186Z,87200.31
2023-08-07T12:24:38.757Z,87209.66
2023-08-07T12:27:07.335Z,87204.94
2023-08-07T12:29:34.709Z,87204.78
2023-08-07T12:32:02.135Z,87194.84
2023-08-07T12:37:00.675Z,87203.19
2023-08-07T12:44:29.361Z,87187.22
2023-08-07T12:46:57.261Z,87195.38
2023-08-07T12:49:25.758Z,87201.13
2023-08-07T12:51:53.162Z,87201.06
